Time;durP1;ratioP1;P1;durP2;ratioP2;P2;SDS_P1;SDS_P2;PMS_P1;PMS_P2;Temp;Humidity;BMP_temperature;BMP_pressure;BME280_temperature;BME280_humidity;BME280_pressure;Samples;Min_cycle;Max_cycle;Signal;HPM_P1;HPM_P2
2022/05/18 00:01:22;;;;;;;5.53;2.42;;;;;;;12.67;53.15;100263.05;1780909;80;20895;-89
2022/05/18 00:03:48;;;;;;;4.83;2.30;;;;;;;12.67;53.34;100264.85;1782845;80;20880;-89
2022/05/18 00:06:15;;;;;;;3.87;2.58;;;;;;;12.67;53.50;100261.73;1781633;80;20959;-90
2022/05/18 00:08:43;;;;;;;4.17;2.47;;;;;;;12.67;53.65;100266.16;1783418;80;21248;-88
2022/05/18 00:11:13;;;;;;;5.67;2.10;;;;;;;12.65;53.15;100272.39;1782321;80;20892;-86
2022/05/18 00:13:43;;;;;;;2.17;1.98;;;;;;;12.65;52.83;100270.25;1781194;80;20860;-88
2022/05/18 00:16:10;;;;;;;5.70;2.17;;;;;;;12.67;52.90;100258.27;1780883;79;20919;-87
2022/05/18 00:18:37;;;;;;;6.70;2.40;;;;;;;12.67;53.14;100272.26;1780983;80;20951;-88
2022/05/18 00:21:05;;;;;;;3.30;1.70;;;;;;;12.67;52.89;100268.31;1781065;79;21319;-87
2022/05/18 00:23:32;;;;;;;3.27;1.80;;;;;;;12.68;53.38;100266.55;1781319;79;20861;-88
2022/05/18 00:25:58;;;;;;;3.70;1.70;;;;;;;12.68;53.59;100258.66;1781072;79;20841;-88
2022/05/18 00:28:25;;;;;;;5.83;1.90;;;;;;;12.65;53.88;100259.23;1781114;80;20916;-86
2022/05/18 00:30:52;;;;;;;4.72;1.85;;;;;;;12.65;53.83;100255.78;1781331;80;21550;-88
2022/05/18 00:33:19;;;;;;;3.05;2.40;;;;;;;12.65;54.36;100256.61;1781564;80;22022;-86
2022/05/18 00:35:46;;;;;;;3.15;2.00;;;;;;;12.65;54.09;100251.83;1783405;79;20994;-87
2022/05/18 00:38:13;;;;;;;3.33;2.10;;;;;;;12.64;54.27;100258.86;1783134;78;20916;-86
2022/05/18 00:40:45;;;;;;;6.33;2.00;;;;;;;12.63;54.28;100265.58;1782177;80;20912;-88
2022/05/18 00:43:35;;;;;;;3.75;1.70;;;;;;;12.61;54.85;100272.25;1781207;80;20880;-88
2022/05/18 00:46:06;;;;;;;2.77;1.50;;;;;;;12.59;55.26;100272.02;1781567;80;21158;-87
2022/05/18 00:48:34;;;;;;;4.53;2.12;;;;;;;12.56;55.79;100265.19;1781961;80;20961;-86
2022/05/18 00:51:04;;;;;;;5.17;2.90;;;;;;;12.53;56.58;100260.62;1782391;80;20880;-84
2022/05/18 00:53:34;;;;;;;3.15;1.80;;;;;;;12.51;56.79;100256.78;1781449;80;21422;-88
2022/05/18 00:56:05;;;;;;;3.02;1.77;;;;;;;12.50;56.72;100257.74;1781202;80;20911;-86
2022/05/18 00:58:49;;;;;;;4.78;1.30;;;;;;;12.50;56.36;100258.23;1752012;80;21205;-88
2022/05/18 01:01:16;;;;;;;4.53;2.12;;;;;;;12.48;56.35;100257.02;1780004;80;20959;-88
2022/05/18 01:03:46;;;;;;;2.95;1.85;;;;;;;12.46;56.33;100258.09;1750982;80;20931;-89
2022/05/18 01:06:35;;;;;;;5.62;2.65;;;;;;;12.43;56.60;100252.58;1781472;80;20927;-87
2022/05/18 01:09:30;;;;;;;4.95;2.15;;;;;;;12.41;57.04;100247.91;1781034;80;21444;-87
2022/05/18 01:11:57;;;;;;;5.35;1.98;;;;;;;12.37;57.81;100259.59;1780996;80;21242;-88
2022/05/18 01:14:45;;;;;;;4.28;2.27;;;;;;;12.32;57.93;100264.36;1780778;80;20955;-87
2022/05/18 01:17:14;;;;;;;4.83;1.57;;;;;;;12.28;57.99;100265.05;1780950;80;21342;-88
2022/05/18 01:19:46;;;;;;;2.62;1.82;;;;;;;12.23;57.98;100261.93;1780829;80;20903;-88
2022/05/18 01:22:48;;;;;;;3.83;1.57;;;;;;;12.19;58.39;100258.67;1780833;80;21432;-87
2022/05/18 01:25:40;;;;;;;3.17;1.37;;;;;;;12.18;58.67;100257.45;1781003;80;21271;-88
2022/05/18 01:28:07;;;;;;;3.17;1.55;;;;;;;12.16;58.30;100251.47;1781026;80;21681;-87
2022/05/18 01:30:38;;;;;;;3.70;1.22;;;;;;;12.15;58.03;100249.32;1781065;80;20971;-88
2022/05/18 01:33:07;;;;;;;5.90;1.67;;;;;;;12.15;57.76;100250.64;1780519;80;20888;-87
2022/05/18 01:35:34;;;;;;;2.20;1.20;;;;;;;12.17;58.01;100253.16;1782055;80;20947;-87
2022/05/18 01:38:03;;;;;;;4.62;1.60;;;;;;;12.19;58.19;100258.67;1781432;80;20987;-86
2022/05/18 01:41:17;;;;;;;3.17;1.65;;;;;;;12.21;58.59;100258.57;1783865;78;20841;-86
2022/05/18 01:43:54;;;;;;;2.10;1.12;;;;;;;12.21;59.00;100258.09;1782444;78;21358;-85
2022/05/18 01:46:21;;;;;;;3.92;1.85;;;;;;;12.22;58.61;100259.75;1781552;80;20936;-87
2022/05/18 01:48:50;;;;;;;3.20;1.85;;;;;;;12.21;58.49;100249.37;1781039;80;21452;-88
2022/05/18 01:51:45;;;;;;;4.97;1.72;;;;;;;12.19;58.40;100248.64;1781281;80;21391;-89
2022/05/18 01:54:12;;;;;;;2.42;1.87;;;;;;;12.16;58.47;100256.28;1780979;80;21318;-89
2022/05/18 01:56:39;;;;;;;2.27;1.42;;;;;;;12.13;58.36;100258.28;1780964;80;20915;-88
2022/05/18 01:59:06;;;;;;;3.35;1.87;;;;;;;12.09;58.51;100253.70;1781214;80;21444;-85
2022/05/18 02:01:34;;;;;;;3.85;1.87;;;;;;;12.06;58.58;100255.73;1780867;80;20986;-88
2022/05/18 02:04:00;;;;;;;2.42;1.65;;;;;;;12.04;58.87;100253.20;1780857;80;21216;-87
2022/05/18 02:06:29;;;;;;;2.62;1.25;;;;;;;12.01;58.68;100243.76;1781151;80;20857;-88
2022/05/18 02:08:58;;;;;;;3.37;1.50;;;;;;;12.00;58.71;100246.00;1781088;79;20931;-87
2022/05/18 02:11:24;;;;;;;5.53;1.40;;;;;;;12.01;58.59;100254.75;1780872;79;21496;-88
2022/05/18 02:13:52;;;;;;;1.52;1.15;;;;;;;12.00;58.16;100267.03;1780960;80;20915;-88
2022/05/18 02:16:19;;;;;;;1.45;1.17;;;;;;;11.97;58.21;100260.69;1784790;80;21188;-88
2022/05/18 02:18:46;;;;;;;2.67;1.25;;;;;;;11.97;58.23;100254.60;1786653;80;20813;-88
2022/05/18 02:21:13;;;;;;;3.72;2.17;;;;;;;11.95;58.43;100249.93;1787086;80;20963;-86
2022/05/18 02:23:41;;;;;;;5.17;2.62;;;;;;;11.94;58.39;100262.23;1786620;79;20927;-86
2022/05/18 02:26:15;;;;;;;1.45;1.02;;;;;;;11.93;58.23;100263.65;1786894;80;21369;-86
2022/05/18 02:28:43;;;;;;;3.17;1.00;;;;;;;11.93;58.29;100259.23;1787310;79;21232;-85
2022/05/18 02:31:10;;;;;;;5.22;1.20;;;;;;;11.94;58.09;100259.61;1786755;80;20899;-86
2022/05/18 02:33:38;;;;;;;9.90;0.98;;;;;;;11.95;57.80;100252.55;1786666;80;20907;-88
2022/05/18 02:36:07;;;;;;;3.70;0.90;;;;;;;11.96;58.03;100252.91;1786896;79;20958;-87
2022/05/18 02:38:35;;;;;;;1.55;1.10;;;;;;;11.96;57.83;100257.71;1786953;80;20971;-86
2022/05/18 02:41:01;;;;;;;7.90;1.40;;;;;;;11.96;57.47;100261.66;1787351;80;21178;-86
2022/05/18 02:43:28;;;;;;;7.42;1.30;;;;;;;11.98;57.28;100265.47;1787675;80;20887;-87
2022/05/18 02:46:12;;;;;;;4.20;1.35;;;;;;;11.99;57.28;100263.22;1790137;80;20914;-86
2022/05/18 02:48:39;;;;;;;3.08;1.10;;;;;;;11.98;57.55;100268.95;1787681;80;20852;-86
2022/05/18 02:51:06;;;;;;;1.50;1.15;;;;;;;11.99;57.69;100262.73;1787161;79;20859;-87
2022/05/18 02:53:33;;;;;;;2.87;0.98;;;;;;;11.99;57.73;100256.65;1787160;80;21262;-87
2022/05/18 02:56:05;;;;;;;1.15;1.00;;;;;;;11.98;57.33;100255.81;1786801;80;20904;-87
2022/05/18 02:58:44;;;;;;;4.53;2.22;;;;;;;11.99;56.48;100260.11;1787007;79;20994;-86
2022/05/18 03:01:18;;;;;;;5.12;2.35;;;;;;;12.01;56.14;100268.73;1787013;79;21365;-85
2022/05/18 03:03:46;;;;;;;2.02;1.62;;;;;;;12.03;55.54;100261.57;1787244;79;20950;-85
2022/05/18 03:06:15;;;;;;;4.37;1.42;;;;;;;12.05;55.25;100266.73;1786996;80;21856;-86
2022/05/18 03:08:43;;;;;;;3.20;0.80;;;;;;;12.05;54.88;100271.98;1786890;80;21526;-87
2022/05/18 03:11:12;;;;;;;2.00;1.10;;;;;;;12.07;53.95;100269.22;1787135;80;20911;-86
2022/05/18 03:13:40;;;;;;;2.35;0.90;;;;;;;12.09;53.62;100274.73;1786930;79;21357;-88
2022/05/18 03:16:07;;;;;;;2.00;1.22;;;;;;;12.11;52.84;100279.41;1784437;80;20875;-86
2022/05/18 03:18:34;;;;;;;2.08;0.90;;;;;;;12.12;53.76;100273.70;1781234;80;21232;-89
2022/05/18 03:23:46;;;;;;;3.40;1.15;;;;;;;12.16;54.29;100289.14;1782238;79;20958;-87
2022/05/18 03:26:17;;;;;;;3.70;1.52;;;;;;;12.17;54.34;100283.40;1782041;80;20923;-88
2022/05/18 03:28:46;;;;;;;2.77;0.93;;;;;;;12.18;54.63;100289.00;1781995;80;20896;-85
2022/05/18 03:31:13;;;;;;;1.95;0.93;;;;;;;12.17;54.75;100282.08;1783144;79;21248;-84
2022/05/18 03:33:40;;;;;;;1.90;0.78;;;;;;;12.18;54.82;100288.55;1782915;79;21381;-83
2022/05/18 03:36:08;;;;;;;2.77;1.10;;;;;;;12.19;54.11;100287.59;1783141;80;20974;-87
2022/05/18 03:38:35;;;;;;;3.12;1.32;;;;;;;12.18;52.88;100298.20;1781297;80;20919;-86
2022/05/18 03:41:02;;;;;;;3.47;0.95;;;;;;;12.18;52.69;100302.15;1781708;80;20907;-87
2022/05/18 03:43:29;;;;;;;4.53;1.20;;;;;;;12.18;53.40;100307.41;1781284;80;21133;-88
2022/05/18 03:45:58;;;;;;;2.77;1.07;;;;;;;12.19;53.33;100311.73;1751247;80;20975;-86
2022/05/18 03:48:25;;;;;;;1.70;0.90;;;;;;;12.21;53.17;100319.03;1783502;80;20982;-83
2022/05/18 03:50:54;;;;;;;1.65;1.30;;;;;;;12.22;53.34;100333.36;1783998;80;20909;-89
2022/05/18 03:53:21;;;;;;;3.98;1.67;;;;;;;12.24;53.42;100334.58;1782246;79;20829;-86
2022/05/18 03:55:49;;;;;;;3.45;1.15;;;;;;;12.23;53.31;100337.69;1781634;79;21236;-87
2022/05/18 03:58:17;;;;;;;4.85;1.15;;;;;;;12.23;53.71;100336.38;1781531;80;20908;-87
2022/05/18 04:00:46;;;;;;;4.10;1.30;;;;;;;12.24;53.77;100335.89;1781722;80;20926;-86
2022/05/18 04:03:13;;;;;;;7.42;1.50;;;;;;;12.23;53.83;100351.31;1781662;80;21373;-86
2022/05/18 04:05:42;;;;;;;5.10;1.42;;;;;;;12.23;54.12;100350.00;1781538;80;20857;-86
2022/05/18 04:08:09;;;;;;;4.30;1.37;;;;;;;12.20;54.41;100356.30;1781086;80;21849;-86
2022/05/18 04:10:42;;;;;;;1.60;1.20;;;;;;;12.18;54.57;100358.22;1781353;80;20868;-87
2022/05/18 04:13:09;;;;;;;2.40;1.10;;;;;;;12.14;54.86;100362.01;1780840;80;20920;-85
2022/05/18 04:15:37;;;;;;;2.15;1.10;;;;;;;12.12;54.66;100355.19;1781524;80;20935;-86
2022/05/18 04:18:04;;;;;;;1.35;1.02;;;;;;;12.11;55.04;100356.95;1786991;80;20962;-86
2022/05/18 04:20:31;;;;;;;5.28;1.42;;;;;;;12.11;55.10;100367.94;1786998;80;21214;-88
2022/05/18 04:22:58;;;;;;;8.05;2.33;;;;;;;12.09;55.10;100364.09;1789275;80;20904;-86
2022/05/18 04:25:27;;;;;;;3.35;1.25;;;;;;;12.09;55.44;100370.67;1788641;79;20963;-84
2022/05/18 04:27:57;;;;;;;8.40;2.22;;;;;;;12.09;55.49;100368.04;1787628;80;21345;-84
2022/05/18 04:30:30;;;;;;;8.35;1.80;;;;;;;12.08;55.87;100378.20;1787434;80;21428;-84
2022/05/18 04:32:55;;;;;;;6.58;2.50;;;;;;;12.06;56.26;100382.73;1786630;80;21341;-86
2022/05/18 04:35:25;;;;;;;7.70;2.47;;;;;;;12.05;56.69;100386.31;1786846;80;20982;-86
2022/05/18 04:37:52;;;;;;;3.40;1.72;;;;;;;12.03;56.75;100381.16;1787229;80;20856;-86
2022/05/18 04:40:19;;;;;;;3.90;1.55;;;;;;;12.03;56.91;100385.58;1787017;79;20899;-86
2022/05/18 04:42:46;;;;;;;2.87;1.40;;;;;;;12.03;56.92;100386.89;1787193;80;20911;-87
2022/05/18 04:45:19;;;;;;;4.75;1.87;;;;;;;12.03;57.19;100377.70;1787428;80;21275;-89
2022/05/18 04:47:46;;;;;;;4.20;1.73;;;;;;;12.04;57.40;100374.10;1787611;80;21002;-87
2022/05/18 04:50:13;;;;;;;4.40;1.05;;;;;;;12.06;57.19;100367.44;1787156;80;20966;-87
2022/05/18 04:52:39;;;;;;;3.33;1.20;;;;;;;12.09;57.10;100358.84;1789013;80;20844;-86
2022/05/18 04:55:08;;;;;;;7.83;1.55;;;;;;;12.13;57.05;100369.99;1789790;78;20963;-85
2022/05/18 04:57:35;;;;;;;2.08;1.50;;;;;;;12.17;57.03;100358.31;1788451;79;21146;-85
2022/05/18 05:00:15;;;;;;;3.85;1.32;;;;;;;12.21;56.75;100358.47;1780481;80;21444;-86
2022/05/18 05:02:45;;;;;;;3.12;1.10;;;;;;;12.26;56.50;100361.60;1786816;80;21519;-86
2022/05/18 05:05:14;;;;;;;4.78;1.20;;;;;;;12.31;56.58;100359.47;1787067;80;20871;-85
2022/05/18 05:07:42;;;;;;;3.35;1.32;;;;;;;12.38;56.78;100355.94;1787093;80;21400;-85
2022/05/18 05:10:09;;;;;;;5.72;1.52;;;;;;;12.45;56.95;100349.30;1787465;79;22167;-86
2022/05/18 05:12:37;;;;;;;1.60;1.20;;;;;;;12.54;57.21;100350.40;1786736;79;20954;-86
2022/05/18 05:15:05;;;;;;;1.42;1.20;;;;;;;12.67;57.20;100351.67;1786863;79;20963;-85
2022/05/18 05:17:34;;;;;;;2.42;1.20;;;;;;;12.81;56.32;100348.40;1782718;80;20915;-86
2022/05/18 05:20:03;;;;;;;3.83;1.02;;;;;;;12.98;55.47;100352.42;1781749;80;20904;-87
2022/05/18 05:22:31;;;;;;;2.90;1.35;;;;;;;13.15;53.65;100348.52;1781278;79;21195;-87
2022/05/18 05:24:58;;;;;;;6.37;1.27;;;;;;;13.30;52.83;100349.19;1781731;79;20928;-86
2022/05/18 05:27:25;;;;;;;4.50;1.30;;;;;;;13.43;51.69;100351.73;1781298;80;20959;-87
2022/05/18 05:29:52;;;;;;;3.67;1.20;;;;;;;13.55;50.20;100350.78;1781171;80;20904;-87
2022/05/18 05:32:20;;;;;;;1.80;1.27;;;;;;;13.64;50.06;100352.70;1781180;80;20915;-89
2022/05/18 05:34:49;;;;;;;2.47;0.93;;;;;;;13.75;49.85;100353.69;1781002;80;21301;-87
2022/05/18 05:37:16;;;;;;;1.45;0.88;;;;;;;13.85;49.32;100349.35;1781201;79;20900;-89
2022/05/18 05:39:43;;;;;;;3.87;1.60;;;;;;;13.94;49.43;100347.80;1781194;80;20923;-86
2022/05/18 05:42:10;;;;;;;2.22;0.80;;;;;;;14.03;47.76;100347.10;1781123;80;20876;-85
2022/05/18 05:44:37;;;;;;;1.42;1.00;;;;;;;14.03;47.76;100347.10;1781561;80;20912;-86
2022/05/18 05:47:04;;;;;;;3.27;1.40;;;;;;;14.04;47.85;100362.78;1781568;80;21113;-86
2022/05/18 05:49:31;;;;;;;1.42;1.10;;;;;;;14.10;47.90;100358.84;1781221;80;20911;-86
2022/05/18 05:51:58;;;;;;;2.72;1.22;;;;;;;14.16;47.98;100358.36;1780958;80;20868;-87
2022/05/18 05:54:26;;;;;;;2.95;0.75;;;;;;;14.21;47.57;100365.91;1781463;80;20864;-87
2022/05/18 05:56:55;;;;;;;4.60;1.10;;;;;;;14.27;47.55;100369.34;1783103;78;20848;-85
2022/05/18 05:59:23;;;;;;;2.37;0.53;;;;;;;14.33;48.20;100370.67;1783304;78;21460;-86
2022/05/18 06:01:51;;;;;;;6.72;1.32;;;;;;;14.39;47.42;100379.42;1782349;80;21381;-88
2022/05/18 06:04:18;;;;;;;2.83;0.72;;;;;;;14.40;46.86;100371.85;1781251;80;20944;-90
2022/05/18 06:06:45;;;;;;;4.37;1.00;;;;;;;14.44;46.83;100370.66;1781003;79;21540;-89
2022/05/18 06:09:13;;;;;;;4.92;0.88;;;;;;;14.61;46.77;100378.08;1781070;80;20951;-88
2022/05/18 06:11:44;;;;;;;1.87;0.72;;;;;;;14.61;46.77;100378.08;1781288;80;20899;-88
2022/05/18 06:14:11;;;;;;;3.55;0.80;;;;;;;14.70;45.75;100376.50;1780939;79;20899;-88
2022/05/18 06:16:41;;;;;;;4.80;1.10;;;;;;;14.81;46.24;100385.70;1781563;80;20935;-90
2022/05/18 06:19:08;;;;;;;3.98;0.80;;;;;;;14.90;46.10;100391.55;1786784;80;20923;-88
2022/05/18 06:21:36;;;;;;;3.70;0.90;;;;;;;14.98;45.81;100390.07;1787279;80;21495;-89
2022/05/18 06:24:03;;;;;;;3.80;1.10;;;;;;;15.13;45.01;100392.28;1788014;79;21196;-88
2022/05/18 06:26:30;;;;;;;1.67;0.80;;;;;;;15.13;45.01;100392.28;1788775;79;20864;-88
2022/05/18 06:31:07;;;;;;;0.98;0.90;;;;;;;15.43;44.90;100389.84;1884538;75;22429;-86
2022/05/18 06:33:36;;;;;;;3.40;0.80;;;;;;;15.52;45.15;100393.06;1860976;77;20839;-85
2022/05/18 06:36:04;;;;;;;1.82;0.93;;;;;;;15.66;44.44;100390.07;1860999;77;21242;-87
2022/05/18 06:38:30;;;;;;;2.60;0.70;;;;;;;15.80;44.32;100389.41;1861302;77;20993;-86
2022/05/18 06:43:45;;;;;;;1.77;1.00;;;;;;;16.00;41.89;100392.49;1861103;76;20926;-87
2022/05/18 06:46:12;;;;;;;5.25;1.15;;;;;;;16.11;42.32;100386.27;1861107;77;21420;-86
2022/05/18 06:48:40;;;;;;;1.77;0.95;;;;;;;16.25;42.20;100400.94;1861108;76;21153;-87
2022/05/18 06:51:07;;;;;;;3.72;1.02;;;;;;;16.39;41.50;100387.35;1861272;77;20856;-87
2022/05/18 06:53:34;;;;;;;1.65;0.90;;;;;;;16.56;41.75;100388.48;1860901;77;21384;-87
2022/05/18 06:56:01;;;;;;;3.12;0.82;;;;;;;16.71;40.59;100390.26;1860898;76;21443;-88
2022/05/18 06:58:28;;;;;;;2.02;0.75;;;;;;;16.80;39.54;100391.28;1830582;77;20844;-87
2022/05/18 07:00:55;;;;;;;3.25;1.30;;;;;;;16.85;39.32;100391.69;1863017;77;20895;-85
2022/05/18 07:03:22;;;;;;;2.83;1.20;;;;;;;16.91;39.03;100384.03;1861972;77;20927;-85
2022/05/18 07:05:49;;;;;;;4.03;1.10;;;;;;;17.01;39.58;100387.16;1861166;77;20839;-86
2022/05/18 07:08:16;;;;;;;3.52;0.75;;;;;;;17.16;39.61;100398.55;1860971;77;20915;-86
2022/05/18 07:10:45;;;;;;;1.12;0.60;;;;;;;17.40;40.24;100400.73;1860944;77;20844;-86
2022/05/18 07:13:16;;;;;;;10.93;1.40;;;;;;;17.68;38.90;100397.36;1861170;77;21095;-84
2022/05/18 07:15:40;;;;;;;4.95;1.00;;;;;;;17.90;37.73;100396.22;1860513;77;20852;-85
2022/05/18 07:18:08;;;;;;;2.90;1.10;;;;;;;18.09;37.67;100404.58;1860750;77;21380;-85
2022/05/18 07:20:36;;;;;;;2.77;0.90;;;;;;;18.25;36.92;100402.61;1860695;77;20875;-85
2022/05/18 07:23:03;;;;;;;3.40;2.12;;;;;;;18.41;35.96;100400.17;1860785;76;21458;-85
2022/05/18 07:25:30;;;;;;;4.80;1.20;;;;;;;18.49;36.25;100395.44;1860784;77;21058;-84
2022/05/18 07:27:57;;;;;;;4.25;3.15;;;;;;;18.62;36.66;100396.73;1861176;77;20894;-86
2022/05/18 07:30:24;;;;;;;2.85;2.02;;;;;;;18.82;36.08;100393.98;1854430;77;20925;-87
2022/05/18 07:32:51;;;;;;;3.42;2.55;;;;;;;19.02;35.92;100388.86;1850570;77;20940;-88
2022/05/18 07:35:18;;;;;;;2.30;1.20;;;;;;;19.24;35.15;100391.54;1851936;77;20834;-85
2022/05/18 07:37:45;;;;;;;2.77;1.32;;;;;;;19.38;35.04;100394.63;1853095;77;21208;-86
2022/05/18 07:40:12;;;;;;;4.20;1.25;;;;;;;19.50;33.50;100397.87;1852463;76;20913;-87
2022/05/18 07:42:39;;;;;;;2.00;1.05;;;;;;;19.55;32.99;100404.91;1851400;77;20972;-90
2022/05/18 07:45:09;;;;;;;2.17;1.22;;;;;;;19.45;32.97;100397.86;1849733;77;21343;-90
2022/05/18 07:47:37;;;;;;;1.80;1.00;;;;;;;19.32;32.47;100393.91;1849784;77;20869;-88
2022/05/18 07:50:06;;;;;;;6.87;1.15;;;;;;;19.15;33.47;100393.80;1850165;76;21134;-88
2022/05/18 07:52:33;;;;;;;2.40;0.78;;;;;;;19.15;34.31;100395.63;1849822;77;20881;-88
2022/05/18 07:55:00;;;;;;;3.55;0.57;;;;;;;19.25;34.41;100403.00;1849730;77;20988;-86
2022/05/18 07:57:26;;;;;;;2.83;0.75;;;;;;;19.29;33.96;100399.05;1849915;77;20878;-90
2022/05/18 08:00:00;;;;;;;4.37;0.70;;;;;;;19.41;33.74;100404.98;1849742;77;20955;-87
2022/05/18 08:02:29;;;;;;;10.90;1.20;;;;;;;19.47;33.58;100412.31;1850195;77;21237;-85
2022/05/18 08:04:56;;;;;;;7.70;0.90;;;;;;;19.56;33.13;100408.72;1851667;77;20909;-84
2022/05/18 08:07:22;;;;;;;2.85;0.62;;;;;;;19.61;33.17;100407.78;1851932;77;20928;-84
2022/05/18 08:15:23;;;;;;;3.37;1.00;;;;;;;19.86;32.11;100403.97;1850070;77;21198;-88
2022/05/18 08:17:50;;;;;;;1.47;0.65;;;;;;;19.92;32.17;100392.70;1849602;76;20999;-86
2022/05/18 08:20:21;;;;;;;1.60;1.10;;;;;;;20.01;32.06;100398.88;1849690;77;20901;-86
2022/05/18 08:22:48;;;;;;;6.08;1.20;;;;;;;20.16;32.14;100396.45;1849732;77;21423;-88
2022/05/18 08:25:15;;;;;;;3.90;3.42;;;;;;;20.35;31.41;100393.55;1849880;77;20956;-84
2022/05/18 08:27:46;;;;;;;3.83;1.00;;;;;;;20.56;31.56;100390.42;1849719;77;21078;-87
2022/05/18 08:30:16;;;;;;;6.42;2.58;;;;;;;20.85;30.97;100386.05;1843765;77;20962;-87
2022/05/18 08:32:45;;;;;;;4.03;1.05;;;;;;;21.14;30.73;100390.03;1835345;77;20915;-86
2022/05/18 08:35:14;;;;;;;1.82;0.95;;;;;;;21.48;27.87;100378.40;1835318;77;20966;-88
2022/05/18 08:37:42;;;;;;;1.27;1.12;;;;;;;21.83;26.02;100374.97;1835006;77;20997;-87
2022/05/18 08:40:30;;;;;;;4.35;1.50;;;;;;;22.13;27.43;100385.39;1835309;77;21226;-88
2022/05/18 08:43:02;;;;;;;4.05;1.82;;;;;;;22.45;25.93;100374.23;1834878;77;20902;-89
2022/05/18 08:45:33;;;;;;;1.75;1.60;;;;;;;22.62;25.08;100373.14;1835069;77;20870;-90
2022/05/18 08:48:31;;;;;;;1.98;1.60;;;;;;;22.37;23.84;100372.45;1835449;77;20950;-88
2022/05/18 08:51:05;;;;;;;1.70;1.40;;;;;;;21.90;24.74;100371.97;1835737;76;20858;-88
2022/05/18 08:53:45;;;;;;;;;;;;;;;21.47;25.42;100369.54;1810643;76;21232;-89
2022/05/18 08:56:18;;;;;;;2.58;2.02;;;;;;;21.07;25.93;100373.05;1835385;77;20069;-88
2022/05/18 08:58:48;;;;;;;4.95;3.27;;;;;;;20.59;26.28;100373.34;1835223;77;21021;-88
2022/05/18 09:01:23;;;;;;;32.50;27.60;;;;;;;20.38;27.40;100378.56;1835199;77;20906;-88
2022/05/18 09:03:59;;;;;;;6.87;5.12;;;;;;;20.57;27.95;100372.16;1835675;77;20974;-90
2022/05/18 09:06:34;;;;;;;2.85;2.00;;;;;;;20.93;27.68;100371.88;1836581;77;21135;-89
2022/05/18 09:12:13;;;;;;;5.67;1.77;;;;;;;21.41;27.00;100362.23;1836944;78;21404;-89
2022/05/18 09:14:43;;;;;;;3.12;1.35;;;;;;;21.76;27.86;100355.31;1836693;77;20891;-88
2022/05/18 09:17:42;;;;;;;2.52;1.55;;;;;;;22.14;26.25;100363.00;1835794;77;20864;-87
2022/05/18 09:20:40;;;;;;;2.33;1.60;;;;;;;22.32;25.05;100354.28;1835541;77;21159;-89
2022/05/18 09:23:38;;;;;;;2.35;1.30;;;;;;;22.59;24.26;100352.13;1834758;77;20839;-90
2022/05/18 09:26:19;;;;;;;2.95;1.82;;;;;;;22.93;25.00;100357.05;1835223;77;20892;-90
2022/05/18 09:29:13;;;;;;;7.70;1.55;;;;;;;23.43;23.79;100349.95;1836092;77;22296;-90
2022/05/18 09:32:08;;;;;;;2.33;1.72;;;;;;;23.91;23.73;100336.56;1857306;75;21381;-88
2022/05/18 09:35:04;;;;;;;4.03;1.35;;;;;;;24.50;22.99;100329.43;1860706;77;21299;-88
2022/05/18 09:37:42;;;;;;;2.80;1.35;;;;;;;24.98;22.76;100345.78;1860330;77;20907;-90
2022/05/18 09:40:23;;;;;;;4.12;1.17;;;;;;;25.15;22.32;100338.30;1860222;77;20921;-89
2022/05/18 09:42:56;;;;;;;5.30;1.30;;;;;;;25.03;22.70;100337.48;1860264;76;20876;-90
2022/05/18 09:45:25;;;;;;;2.10;1.07;;;;;;;25.04;22.02;100335.63;1851319;77;20926;-90
2022/05/18 09:48:04;;;;;;;1.57;0.93;;;;;;;24.82;22.48;100342.34;1860451;77;21287;-89
2022/05/18 09:50:31;;;;;;;2.60;0.90;;;;;;;24.52;21.46;100344.33;1857647;77;21479;-89
2022/05/18 09:52:58;;;;;;;3.15;1.07;;;;;;;24.18;21.97;100343.06;1861008;77;20883;-89
2022/05/18 09:55:26;;;;;;;1.57;0.78;;;;;;;23.73;21.94;100352.97;1860784;77;20868;-89
2022/05/18 09:58:01;;;;;;;0.60;0.30;;;;;;;23.21;21.88;100349.84;1860219;77;20876;-89
2022/05/18 10:00:31;;;;;;;1.70;0.50;;;;;;;22.90;22.37;100351.21;1860244;76;21187;-90
2022/05/18 10:09:03;;;;;;;8.55;6.90;;;;;;;23.91;21.80;100338.41;1860828;77;21345;-89
2022/05/18 10:11:33;;;;;;;11.90;10.70;;;;;;;24.45;21.30;100334.51;1860231;76;20919;-88
2022/05/18 10:14:11;;;;;;;13.98;11.25;;;;;;;24.64;21.16;100336.61;1863250;77;21282;-89
2022/05/18 10:16:49;;;;;;;5.47;2.95;;;;;;;24.80;20.74;100312.20;1862545;76;20797;-90
2022/05/18 10:19:27;;;;;;;3.98;2.15;;;;;;;25.15;20.19;100334.27;1858212;76;20856;-87
2022/05/18 10:22:02;;;;;;;1.77;1.42;;;;;;;25.21;20.90;100332.16;1860116;77;20957;-90
2022/05/18 10:24:53;;;;;;;2.85;0.53;;;;;;;24.93;19.86;100345.55;1860922;76;21310;-88
2022/05/18 10:27:30;;;;;;;1.45;0.70;;;;;;;24.78;19.93;100346.42;1862297;77;21135;-87
2022/05/18 10:30:19;;;;;;;1.75;0.72;;;;;;;24.43;20.08;100341.39;1861756;77;21373;-90
2022/05/18 10:33:10;;;;;;;6.92;1.35;;;;;;;24.45;20.89;100339.35;1860625;77;20836;-89
2022/05/18 10:35:54;;;;;;;3.52;2.12;;;;;;;24.64;21.14;100341.97;1859741;77;20883;-90
2022/05/18 10:38:28;;;;;;;5.97;3.27;;;;;;;24.93;21.16;100342.86;1861198;77;20820;-90
2022/05/18 10:41:08;;;;;;;1.85;0.57;;;;;;;25.12;20.96;100340.01;1861022;77;20890;-88
2022/05/18 10:43:58;;;;;;;2.90;0.80;;;;;;;24.86;20.28;100341.98;1860498;76;20950;-89
2022/05/18 10:46:47;;;;;;;1.75;0.50;;;;;;;24.57;20.86;100341.90;1860738;77;20942;-89
2022/05/18 10:49:34;;;;;;;2.90;0.90;;;;;;;24.48;21.47;100355.59;1860595;77;20919;-87
2022/05/18 10:52:20;;;;;;;2.30;0.95;;;;;;;24.39;20.66;100338.80;1860624;77;21407;-87
2022/05/18 10:54:57;;;;;;;1.65;0.50;;;;;;;24.32;20.89;100347.25;1860521;76;21878;-88
2022/05/18 10:57:34;;;;;;;1.75;0.70;;;;;;;24.14;21.44;100348.48;1860630;77;21493;-88
2022/05/18 11:00:11;;;;;;;2.20;0.70;;;;;;;23.94;21.63;100352.76;1860598;77;20950;-88
2022/05/18 11:03:00;;;;;;;3.20;0.57;;;;;;;23.90;21.93;100358.16;1861087;77;21329;-88
2022/05/18 11:05:45;;;;;;;1.15;0.40;;;;;;;24.00;22.10;100350.69;1861551;76;20868;-90
2022/05/18 11:08:18;;;;;;;2.87;0.40;;;;;;;24.16;21.78;100350.98;1862073;76;21669;-90
2022/05/18 11:10:56;;;;;;;1.95;0.40;;;;;;;24.12;21.08;100349.20;1859254;76;20919;-89
2022/05/18 11:13:43;;;;;;;2.60;0.35;;;;;;;23.86;20.92;100352.87;1862358;77;20918;-89
2022/05/18 11:16:16;;;;;;;4.42;0.60;;;;;;;23.38;20.76;100356.67;1862628;76;20911;-89
2022/05/18 11:19:03;;;;;;;0.62;0.23;;;;;;;22.84;21.39;100348.77;1863155;77;20875;-88
2022/05/18 11:21:47;;;;;;;2.75;0.88;;;;;;;22.56;22.03;100345.77;1863542;77;21166;-87
2022/05/18 11:24:32;;;;;;;0.82;0.50;;;;;;;22.40;23.18;100348.05;1862301;77;20939;-89
2022/05/18 11:27:20;;;;;;;2.92;0.50;;;;;;;22.48;22.63;100344.00;1861635;76;21004;-89
2022/05/18 11:30:01;;;;;;;7.47;5.92;;;;;;;22.64;24.04;100347.58;1862237;77;20906;-91
2022/05/18 11:32:55;;;;;;;6.92;5.17;;;;;;;22.70;21.77;100342.83;1829702;77;20884;-89
2022/05/18 11:35:56;;;;;;;10.00;7.33;;;;;;;22.74;23.07;100330.30;1827693;77;20912;-90
2022/05/18 11:38:34;;;;;;;13.85;8.18;;;;;;;22.82;22.25;100336.59;1827137;78;21009;-88
2022/05/18 11:41:41;;;;;;;3.83;1.45;;;;;;;22.48;21.34;100333.31;1827945;76;20852;-86
2022/05/18 11:44:14;;;;;;;11.53;4.45;;;;;;;21.98;21.76;100343.05;1828375;76;20967;-87
2022/05/18 11:47:19;;;;;;;1.43;1.20;;;;;;;21.42;22.57;100346.55;1828834;76;20942;-87
2022/05/18 11:50:24;;;;;;;4.95;1.22;;;;;;;21.13;23.16;100340.38;1826061;78;21084;-89
2022/05/18 11:53:00;;;;;;;;;;;;;;;20.97;23.81;100350.55;1828933;78;21045;-88
2022/05/18 11:56:08;;;;;;;3.27;0.62;;;;;;;20.70;23.07;100358.38;1826657;78;20078;-88
2022/05/18 12:01:43;;;;;;;2.37;0.85;;;;;;;19.91;23.82;100359.08;1826023;78;20907;-89
2022/05/18 12:04:27;;;;;;;2.75;0.50;;;;;;;19.77;24.51;100361.84;1825919;78;21173;-90
2022/05/18 12:07:22;;;;;;;0.93;0.50;;;;;;;19.68;25.11;100362.77;1825680;78;20978;-89
2022/05/18 12:10:10;;;;;;;3.02;0.80;;;;;;;19.60;25.89;100368.84;1826219;77;20887;-88
2022/05/18 12:12:55;;;;;;;4.20;0.85;;;;;;;19.52;25.48;100365.30;1825570;78;21441;-88
2022/05/18 12:15:58;;;;;;;1.27;0.70;;;;;;;19.36;25.62;100364.20;1825570;78;20974;-88